sensor_id;sensor_type;location;lat;lon;timestamp;temperature;humidity
2012;DHT22;1009;51.436;6.972;2023-06-24T00:00:39;19.00;99.90
2012;DHT22;1009;51.436;6.972;2023-06-24T00:03:06;19.10;99.90
2012;DHT22;1009;51.436;6.972;2023-06-24T00:05:33;19.00;99.90
2012;DHT22;1009;51.436;6.972;2023-06-24T00:08:01;19.00;99.90
2012;DHT22;1009;51.436;6.972;2023-06-24T00:10:28;19.00;99.90
2012;DHT22;1009;51.436;6.972;2023-06-24T00:12:55;19.00;99.90
2012;DHT22;1009;51.436;6.972;2023-06-24T00:15:24;18.90;99.90
2012;DHT22;1009;51.436;6.972;2023-06-24T00:17:51;18.90;99.90
2012;DHT22;1009;51.436;6.972;2023-06-24T00:20:21;18.90;99.90
2012;DHT22;1009;51.436;6.972;2023-06-24T00:22:48;19.00;99.90
2012;DHT22;1009;51.436;6.972;2023-06-24T00:25:16;19.00;99.90
2012;DHT22;1009;51.436;6.972;2023-06-24T00:27:43;19.00;99.90
2012;DHT22;1009;51.436;6.972;2023-06-24T00:30:11;19.00;99.90
2012;DHT22;1009;51.436;6.972;2023-06-24T00:32:38;19.10;99.90
2012;DHT22;1009;51.436;6.972;2023-06-24T00:35:05;19.10;99.90
2012;DHT22;1009;51.436;6.972;2023-06-24T00:37:32;19.10;99.90
2012;DHT22;1009;51.436;6.972;2023-06-24T00:39:59;19.10;99.90
2012;DHT22;1009;51.436;6.972;2023-06-24T00:42:27;19.10;99.90
2012;DHT22;1009;51.436;6.972;2023-06-24T00:44:53;19.10;99.90
2012;DHT22;1009;51.436;6.972;2023-06-24T00:47:20;19.10;99.90
2012;DHT22;1009;51.436;6.972;2023-06-24T00:49:47;19.10;99.90
2012;DHT22;1009;51.436;6.972;2023-06-24T00:52:14;19.10;99.90
2012;DHT22;1009;51.436;6.972;2023-06-24T00:54:41;19.00;99.90
2012;DHT22;1009;51.436;6.972;2023-06-24T00:57:08;19.00;99.90
2012;DHT22;1009;51.436;6.972;2023-06-24T00:59:37;19.00;99.90
2012;DHT22;1009;51.436;6.972;2023-06-24T01:02:05;19.00;99.90
2012;DHT22;1009;51.436;6.972;2023-06-24T01:04:32;19.00;99.90
2012;DHT22;1009;51.436;6.972;2023-06-24T01:07:00;18.90;99.90
2012;DHT22;1009;51.436;6.972;2023-06-24T01:09:28;18.90;99.90
2012;DHT22;1009;51.436;6.972;2023-06-24T01:11:54;18.90;99.90
2012;DHT22;1009;51.436;6.972;2023-06-24T01:14:21;18.80;99.90
2012;DHT22;1009;51.436;6.972;2023-06-24T01:16:55;18.80;99.90
2012;DHT22;1009;51.436;6.972;2023-06-24T01:19:43;18.80;99.90
2012;DHT22;1009;51.436;6.972;2023-06-24T01:22:20;18.60;99.90
2012;DHT22;1009;51.436;6.972;2023-06-24T01:25:03;18.70;99.90
2012;DHT22;1009;51.436;6.972;2023-06-24T01:27:51;18.70;99.90
2012;DHT22;1009;51.436;6.972;2023-06-24T01:30:39;18.70;99.90
2012;DHT22;1009;51.436;6.972;2023-06-24T01:33:13;18.80;99.90
2012;DHT22;1009;51.436;6.972;2023-06-24T01:35:41;18.80;99.90
2012;DHT22;1009;51.436;6.972;2023-06-24T01:38:12;18.80;99.90
2012;DHT22;1009;51.436;6.972;2023-06-24T01:40:45;18.80;99.90
2012;DHT22;1009;51.436;6.972;2023-06-24T01:43:13;18.80;99.90
2012;DHT22;1009;51.436;6.972;2023-06-24T01:45:43;18.80;99.90
2012;DHT22;1009;51.436;6.972;2023-06-24T01:48:15;18.80;99.90
2012;DHT22;1009;51.436;6.972;2023-06-24T01:50:51;18.80;99.90
2012;DHT22;1009;51.436;6.972;2023-06-24T01:53:21;18.80;99.90
2012;DHT22;1009;51.436;6.972;2023-06-24T01:55:49;18.80;99.90
2012;DHT22;1009;51.436;6.972;2023-06-24T01:58:18;18.80;99.90
2012;DHT22;1009;51.436;6.972;2023-06-24T02:00:46;18.80;99.90
2012;DHT22;1009;51.436;6.972;2023-06-24T02:03:15;18.80;99.90
2012;DHT22;1009;51.436;6.972;2023-06-24T02:05:44;18.90;99.90
2012;DHT22;1009;51.436;6.972;2023-06-24T02:08:13;18.90;99.90
2012;DHT22;1009;51.436;6.972;2023-06-24T02:10:41;19.00;99.90
2012;DHT22;1009;51.436;6.972;2023-06-24T02:13:10;19.10;99.90
2012;DHT22;1009;51.436;6.972;2023-06-24T02:15:38;19.10;99.90
2012;DHT22;1009;51.436;6.972;2023-06-24T02:18:07;19.10;99.90
2012;DHT22;1009;51.436;6.972;2023-06-24T02:20:36;19.20;99.90
2012;DHT22;1009;51.436;6.972;2023-06-24T02:23:07;19.10;99.90
2012;DHT22;1009;51.436;6.972;2023-06-24T02:25:35;19.10;99.90
2012;DHT22;1009;51.436;6.972;2023-06-24T02:28:04;19.10;99.90
2012;DHT22;1009;51.436;6.972;2023-06-24T02:30:31;19.10;99.90
2012;DHT22;1009;51.436;6.972;2023-06-24T02:32:58;19.10;99.90
2012;DHT22;1009;51.436;6.972;2023-06-24T02:35:25;19.20;99.90
2012;DHT22;1009;51.436;6.972;2023-06-24T02:37:53;19.10;99.90
2012;DHT22;1009;51.436;6.972;2023-06-24T02:40:20;19.10;99.90
2012;DHT22;1009;51.436;6.972;2023-06-24T02:42:47;19.10;99.90
2012;DHT22;1009;51.436;6.972;2023-06-24T02:45:14;19.00;99.90
2012;DHT22;1009;51.436;6.972;2023-06-24T02:47:44;19.00;99.90
2012;DHT22;1009;51.436;6.972;2023-06-24T02:50:12;19.00;99.90
2012;DHT22;1009;51.436;6.972;2023-06-24T02:52:39;18.90;99.90
2012;DHT22;1009;51.436;6.972;2023-06-24T02:55:09;18.90;99.90
2012;DHT22;1009;51.436;6.972;2023-06-24T02:57:37;19.00;99.90
2012;DHT22;1009;51.436;6.972;2023-06-24T03:00:05;19.00;99.90
2012;DHT22;1009;51.436;6.972;2023-06-24T03:02:38;19.00;99.90
2012;DHT22;1009;51.436;6.972;2023-06-24T03:05:06;19.00;99.90
2012;DHT22;1009;51.436;6.972;2023-06-24T03:07:33;19.00;99.90
2012;DHT22;1009;51.436;6.972;2023-06-24T03:10:00;19.00;99.90
2012;DHT22;1009;51.436;6.972;2023-06-24T03:12:29;19.00;99.90
2012;DHT22;1009;51.436;6.972;2023-06-24T03:14:56;19.00;99.90
2012;DHT22;1009;51.436;6.972;2023-06-24T03:17:26;18.90;99.90
2012;DHT22;1009;51.436;6.972;2023-06-24T03:19:53;19.00;99.90
2012;DHT22;1009;51.436;6.972;2023-06-24T03:22:21;18.90;99.90
2012;DHT22;1009;51.436;6.972;2023-06-24T03:24:48;18.90;99.90
2012;DHT22;1009;51.436;6.972;2023-06-24T03:27:16;18.90;99.90
2012;DHT22;1009;51.436;6.972;2023-06-24T03:29:45;18.90;99.90
2012;DHT22;1009;51.436;6.972;2023-06-24T03:32:11;18.90;99.90
2012;DHT22;1009;51.436;6.972;2023-06-24T03:34:38;18.90;99.90
2012;DHT22;1009;51.436;6.972;2023-06-24T03:37:05;19.00;99.90
2012;DHT22;1009;51.436;6.972;2023-06-24T03:39:32;19.00;99.90
2012;DHT22;1009;51.436;6.972;2023-06-24T03:41:58;19.00;99.90
2012;DHT22;1009;51.436;6.972;2023-06-24T03:44:25;18.90;99.90
2012;DHT22;1009;51.436;6.972;2023-06-24T03:46:53;18.90;99.90
2012;DHT22;1009;51.436;6.972;2023-06-24T03:49:23;19.00;99.90
2012;DHT22;1009;51.436;6.972;2023-06-24T03:51:49;19.00;99.90
2012;DHT22;1009;51.436;6.972;2023-06-24T03:54:19;19.10;99.90
2012;DHT22;1009;51.436;6.972;2023-06-24T03:56:46;19.20;99.90
2012;DHT22;1009;51.436;6.972;2023-06-24T03:59:12;19.20;99.90
2012;DHT22;1009;51.436;6.972;2023-06-24T04:01:39;19.30;99.90
2012;DHT22;1009;51.436;6.972;2023-06-24T04:04:07;19.30;99.90
2012;DHT22;1009;51.436;6.972;2023-06-24T04:06:34;19.40;99.90
2012;DHT22;1009;51.436;6.972;2023-06-24T04:09:00;19.40;99.90
2012;DHT22;1009;51.436;6.972;2023-06-24T04:11:27;19.50;99.90
2012;DHT22;1009;51.436;6.972;2023-06-24T04:13:54;19.60;99.90
2012;DHT22;1009;51.436;6.972;2023-06-24T04:16:21;19.60;99.90
2012;DHT22;1009;51.436;6.972;2023-06-24T04:18:48;19.70;99.90
2012;DHT22;1009;51.436;6.972;2023-06-24T04:21:22;19.70;99.90
2012;DHT22;1009;51.436;6.972;2023-06-24T04:23:51;19.70;99.90
2012;DHT22;1009;51.436;6.972;2023-06-24T04:26:21;19.70;99.90
2012;DHT22;1009;51.436;6.972;2023-06-24T04:28:51;19.70;99.90
2012;DHT22;1009;51.436;6.972;2023-06-24T04:31:17;19.70;99.90
2012;DHT22;1009;51.436;6.972;2023-06-24T04:33:44;19.70;99.90
2012;DHT22;1009;51.436;6.972;2023-06-24T04:36:11;19.80;99.90
2012;DHT22;1009;51.436;6.972;2023-06-24T04:38:39;19.70;99.90
2012;DHT22;1009;51.436;6.972;2023-06-24T04:41:05;19.80;99.90
2012;DHT22;1009;51.436;6.972;2023-06-24T04:43:32;19.80;99.90
2012;DHT22;1009;51.436;6.972;2023-06-24T04:46:01;19.80;99.90
2012;DHT22;1009;51.436;6.972;2023-06-24T04:48:28;19.80;99.90
2012;DHT22;1009;51.436;6.972;2023-06-24T04:50:54;19.70;99.90
2012;DHT22;1009;51.436;6.972;2023-06-24T04:53:23;19.70;99.90
2012;DHT22;1009;51.436;6.972;2023-06-24T04:55:51;19.70;99.90
2012;DHT22;1009;51.436;6.972;2023-06-24T04:58:18;19.70;99.90
2012;DHT22;1009;51.436;6.972;2023-06-24T05:00:44;19.60;99.90
2012;DHT22;1009;51.436;6.972;2023-06-24T05:03:11;19.70;99.90
2012;DHT22;1009;51.436;6.972;2023-06-24T05:05:39;19.60;99.90
2012;DHT22;1009;51.436;6.972;2023-06-24T05:08:05;19.60;99.90
2012;DHT22;1009;51.436;6.972;2023-06-24T05:10:32;19.70;99.90
2012;DHT22;1009;51.436;6.972;2023-06-24T05:13:00;19.60;99.90
2012;DHT22;1009;51.436;6.972;2023-06-24T05:15:27;19.50;99.90
2012;DHT22;1009;51.436;6.972;2023-06-24T05:17:54;19.50;99.90
2012;DHT22;1009;51.436;6.972;2023-06-24T05:20:23;19.60;99.90
2012;DHT22;1009;51.436;6.972;2023-06-24T05:22:50;19.50;99.90
2012;DHT22;1009;51.436;6.972;2023-06-24T05:25:17;19.60;99.90
2012;DHT22;1009;51.436;6.972;2023-06-24T05:27:44;19.60;99.90
2012;DHT22;1009;51.436;6.972;2023-06-24T05:30:13;19.60;99.90
2012;DHT22;1009;51.436;6.972;2023-06-24T05:32:40;19.60;99.90
2012;DHT22;1009;51.436;6.972;2023-06-24T05:35:07;19.70;99.90
2012;DHT22;1009;51.436;6.972;2023-06-24T05:37:33;19.70;99.90
2012;DHT22;1009;51.436;6.972;2023-06-24T05:40:01;19.70;99.90
2012;DHT22;1009;51.436;6.972;2023-06-24T05:42:30;19.70;99.90
2012;DHT22;1009;51.436;6.972;2023-06-24T05:44:57;19.70;99.90
2012;DHT22;1009;51.436;6.972;2023-06-24T05:47:25;19.70;99.90
2012;DHT22;1009;51.436;6.972;2023-06-24T05:49:51;19.60;99.90
2012;DHT22;1009;51.436;6.972;2023-06-24T05:52:18;19.60;99.90
2012;DHT22;1009;51.436;6.972;2023-06-24T05:54:45;19.60;99.90
2012;DHT22;1009;51.436;6.972;2023-06-24T05:57:12;19.70;99.90
2012;DHT22;1009;51.436;6.972;2023-06-24T05:59:38;19.70;99.90
2012;DHT22;1009;51.436;6.972;2023-06-24T06:02:08;19.80;99.90
2012;DHT22;1009;51.436;6.972;2023-06-24T06:04:36;19.90;99.90
2012;DHT22;1009;51.436;6.972;2023-06-24T06:07:03;20.10;99.90
2012;DHT22;1009;51.436;6.972;2023-06-24T06:09:30;20.20;99.90
2012;DHT22;1009;51.436;6.972;2023-06-24T06:11:57;20.40;99.90
2012;DHT22;1009;51.436;6.972;2023-06-24T06:14:24;20.60;99.90
2012;DHT22;1009;51.436;6.972;2023-06-24T06:16:50;20.90;99.90
2012;DHT22;1009;51.436;6.972;2023-06-24T06:19:17;21.00;99.90
2012;DHT22;1009;51.436;6.972;2023-06-24T06:21:45;20.90;99.90
2012;DHT22;1009;51.436;6.972;2023-06-24T06:24:12;20.90;99.90
2012;DHT22;1009;51.436;6.972;2023-06-24T06:26:41;20.90;99.90
2012;DHT22;1009;51.436;6.972;2023-06-24T06:29:08;21.00;99.90
2012;DHT22;1009;51.436;6.972;2023-06-24T06:31:35;21.10;99.90
2012;DHT22;1009;51.436;6.972;2023-06-24T06:34:02;21.30;99.90
2012;DHT22;1009;51.436;6.972;2023-06-24T06:36:29;21.40;99.90
2012;DHT22;1009;51.436;6.972;2023-06-24T06:38:57;21.60;99.90
2012;DHT22;1009;51.436;6.972;2023-06-24T06:41:23;21.60;99.90
2012;DHT22;1009;51.436;6.972;2023-06-24T06:43:50;21.60;99.90
2012;DHT22;1009;51.436;6.972;2023-06-24T06:46:17;21.70;99.90
2012;DHT22;1009;51.436;6.972;2023-06-24T06:48:44;21.60;99.90
2012;DHT22;1009;51.436;6.972;2023-06-24T06:51:11;21.70;99.90
2012;DHT22;1009;51.436;6.972;2023-06-24T06:53:38;21.70;99.90
2012;DHT22;1009;51.436;6.972;2023-06-24T06:56:06;21.80;99.90
2012;DHT22;1009;51.436;6.972;2023-06-24T06:58:33;21.80;99.90
2012;DHT22;1009;51.436;6.972;2023-06-24T07:01:00;21.90;99.90
2012;DHT22;1009;51.436;6.972;2023-06-24T07:03:30;22.00;99.90
2012;DHT22;1009;51.436;6.972;2023-06-24T07:05:57;21.90;99.90
2012;DHT22;1009;51.436;6.972;2023-06-24T07:08:24;22.00;99.90
2012;DHT22;1009;51.436;6.972;2023-06-24T07:10:50;22.00;99.90
2012;DHT22;1009;51.436;6.972;2023-06-24T07:13:18;22.00;99.90
2012;DHT22;1009;51.436;6.972;2023-06-24T07:15:45;21.90;99.90
2012;DHT22;1009;51.436;6.972;2023-06-24T07:18:12;21.90;99.90
2012;DHT22;1009;51.436;6.972;2023-06-24T07:20:39;21.90;99.90
2012;DHT22;1009;51.436;6.972;2023-06-24T07:23:05;21.90;99.90
2012;DHT22;1009;51.436;6.972;2023-06-24T07:25:32;22.00;99.90
2012;DHT22;1009;51.436;6.972;2023-06-24T07:28:03;22.20;99.90
2012;DHT22;1009;51.436;6.972;2023-06-24T07:30:31;22.30;99.90
2012;DHT22;1009;51.436;6.972;2023-06-24T07:32:57;22.60;99.90
2012;DHT22;1009;51.436;6.972;2023-06-24T07:35:24;22.70;99.90
2012;DHT22;1009;51.436;6.972;2023-06-24T07:37:51;22.80;99.90
2012;DHT22;1009;51.436;6.972;2023-06-24T07:40:18;22.90;99.90
2012;DHT22;1009;51.436;6.972;2023-06-24T07:42:47;23.20;99.90
2012;DHT22;1009;51.436;6.972;2023-06-24T07:45:14;23.30;99.90
2012;DHT22;1009;51.436;6.972;2023-06-24T07:47:42;23.40;99.90
2012;DHT22;1009;51.436;6.972;2023-06-24T07:50:09;23.40;99.90
2012;DHT22;1009;51.436;6.972;2023-06-24T07:52:36;23.60;99.90
2012;DHT22;1009;51.436;6.972;2023-06-24T07:55:03;23.60;99.90
2012;DHT22;1009;51.436;6.972;2023-06-24T07:57:31;23.60;99.90
2012;DHT22;1009;51.436;6.972;2023-06-24T07:59:58;23.60;99.90
2012;DHT22;1009;51.436;6.972;2023-06-24T08:02:24;23.70;99.90
2012;DHT22;1009;51.436;6.972;2023-06-24T08:04:53;23.80;99.90
2012;DHT22;1009;51.436;6.972;2023-06-24T08:07:19;24.00;99.90
2012;DHT22;1009;51.436;6.972;2023-06-24T08:09:46;24.10;99.90
2012;DHT22;1009;51.436;6.972;2023-06-24T08:12:19;24.20;99.90
2012;DHT22;1009;51.436;6.972;2023-06-24T08:14:46;24.30;99.90
2012;DHT22;1009;51.436;6.972;2023-06-24T08:17:12;24.30;99.90
2012;DHT22;1009;51.436;6.972;2023-06-24T08:19:39;24.30;99.90
2012;DHT22;1009;51.436;6.972;2023-06-24T08:22:10;24.40;99.90
2012;DHT22;1009;51.436;6.972;2023-06-24T08:24:37;24.50;99.90
2012;DHT22;1009;51.436;6.972;2023-06-24T08:27:04;24.50;99.90
2012;DHT22;1009;51.436;6.972;2023-06-24T08:29:30;24.60;99.90
2012;DHT22;1009;51.436;6.972;2023-06-24T08:31:57;24.70;99.90
2012;DHT22;1009;51.436;6.972;2023-06-24T08:34:24;24.90;99.90
2012;DHT22;1009;51.436;6.972;2023-06-24T08:36:51;24.90;99.90
2012;DHT22;1009;51.436;6.972;2023-06-24T08:39:19;25.00;99.90
2012;DHT22;1009;51.436;6.972;2023-06-24T08:41:45;25.00;99.90
2012;DHT22;1009;51.436;6.972;2023-06-24T08:44:12;25.00;99.90
2012;DHT22;1009;51.436;6.972;2023-06-24T08:46:39;25.10;99.90
2012;DHT22;1009;51.436;6.972;2023-06-24T08:49:12;25.20;99.90
2012;DHT22;1009;51.436;6.972;2023-06-24T08:51:41;25.30;99.90
2012;DHT22;1009;51.436;6.972;2023-06-24T08:54:09;25.30;99.90
2012;DHT22;1009;51.436;6.972;2023-06-24T08:56:38;25.40;99.90
2012;DHT22;1009;51.436;6.972;2023-06-24T08:59:05;25.60;99.90
2012;DHT22;1009;51.436;6.972;2023-06-24T09:01:32;25.70;99.90
2012;DHT22;1009;51.436;6.972;2023-06-24T09:03:59;25.90;99.90
2012;DHT22;1009;51.436;6.972;2023-06-24T09:06:26;25.90;99.90
2012;DHT22;1009;51.436;6.972;2023-06-24T09:08:53;26.00;99.90
2012;DHT22;1009;51.436;6.972;2023-06-24T09:11:22;26.10;99.90
2012;DHT22;1009;51.436;6.972;2023-06-24T09:13:55;26.20;99.90
2012;DHT22;1009;51.436;6.972;2023-06-24T09:16:26;26.20;99.90
2012;DHT22;1009;51.436;6.972;2023-06-24T09:18:59;26.20;99.90
2012;DHT22;1009;51.436;6.972;2023-06-24T09:21:27;26.30;99.90
2012;DHT22;1009;51.436;6.972;2023-06-24T09:23:57;26.30;99.90
2012;DHT22;1009;51.436;6.972;2023-06-24T09:26:24;26.40;99.90
2012;DHT22;1009;51.436;6.972;2023-06-24T09:28:52;26.50;99.90
2012;DHT22;1009;51.436;6.972;2023-06-24T09:31:23;26.60;99.90
2012;DHT22;1009;51.436;6.972;2023-06-24T09:33:50;26.70;99.90
2012;DHT22;1009;51.436;6.972;2023-06-24T09:36:17;26.60;99.90
2012;DHT22;1009;51.436;6.972;2023-06-24T09:38:44;26.40;99.90
2012;DHT22;1009;51.436;6.972;2023-06-24T09:41:11;26.50;99.90
2012;DHT22;1009;51.436;6.972;2023-06-24T09:43:38;26.70;99.90
2012;DHT22;1009;51.436;6.972;2023-06-24T09:46:06;26.80;99.90
2012;DHT22;1009;51.436;6.972;2023-06-24T09:48:35;26.90;99.90
2012;DHT22;1009;51.436;6.972;2023-06-24T09:51:03;27.00;99.90
2012;DHT22;1009;51.436;6.972;2023-06-24T09:53:31;26.90;99.90
2012;DHT22;1009;51.436;6.972;2023-06-24T09:55:59;26.90;99.90
2012;DHT22;1009;51.436;6.972;2023-06-24T09:58:27;27.00;99.90
2012;DHT22;1009;51.436;6.972;2023-06-24T10:00:55;27.20;98.90
2012;DHT22;1009;51.436;6.972;2023-06-24T10:03:22;27.20;99.90
2012;DHT22;1009;51.436;6.972;2023-06-24T10:05:50;26.90;97.20
2012;DHT22;1009;51.436;6.972;2023-06-24T10:08:18;26.90;99.20
2012;DHT22;1009;51.436;6.972;2023-06-24T10:10:45;27.10;98.50
2012;DHT22;1009;51.436;6.972;2023-06-24T10:13:12;27.20;99.90
2012;DHT22;1009;51.436;6.972;2023-06-24T10:15:39;27.40;99.30
2012;DHT22;1009;51.436;6.972;2023-06-24T10:18:33;27.50;99.60
2012;DHT22;1009;51.436;6.972;2023-06-24T10:21:02;27.50;94.20
2012;DHT22;1009;51.436;6.972;2023-06-24T10:23:39;27.40;91.50
2012;DHT22;1009;51.436;6.972;2023-06-24T10:26:08;27.50;95.60
2012;DHT22;1009;51.436;6.972;2023-06-24T10:29:10;27.50;94.70
2012;DHT22;1009;51.436;6.972;2023-06-24T10:31:52;27.60;95.60
2012;DHT22;1009;51.436;6.972;2023-06-24T10:34:38;27.70;93.60
2012;DHT22;1009;51.436;6.972;2023-06-24T10:37:14;27.80;89.60
2012;DHT22;1009;51.436;6.972;2023-06-24T10:39:45;27.80;91.20
2012;DHT22;1009;51.436;6.972;2023-06-24T10:42:30;27.70;90.50
2012;DHT22;1009;51.436;6.972;2023-06-24T10:44:59;27.70;92.20
2012;DHT22;1009;51.436;6.972;2023-06-24T10:47:27;27.90;92.40
2012;DHT22;1009;51.436;6.972;2023-06-24T10:49:54;28.00;90.50
2012;DHT22;1009;51.436;6.972;2023-06-24T10:52:25;28.30;91.60
2012;DHT22;1009;51.436;6.972;2023-06-24T10:54:58;28.20;91.80
2012;DHT22;1009;51.436;6.972;2023-06-24T10:57:26;28.20;92.20
2012;DHT22;1009;51.436;6.972;2023-06-24T10:59:54;28.10;95.90
2012;DHT22;1009;51.436;6.972;2023-06-24T11:02:22;28.10;92.10
2012;DHT22;1009;51.436;6.972;2023-06-24T11:05:00;28.30;96.70
2012;DHT22;1009;51.436;6.972;2023-06-24T11:07:29;28.20;88.20
2012;DHT22;1009;51.436;6.972;2023-06-24T11:10:00;28.50;94.50
2012;DHT22;1009;51.436;6.972;2023-06-24T11:12:30;28.50;86.10
2012;DHT22;1009;51.436;6.972;2023-06-24T11:14:57;28.50;91.20
2012;DHT22;1009;51.436;6.972;2023-06-24T11:17:24;28.40;91.50
2012;DHT22;1009;51.436;6.972;2023-06-24T11:19:52;28.50;90.10
2012;DHT22;1009;51.436;6.972;2023-06-24T11:22:19;28.70;91.30
2012;DHT22;1009;51.436;6.972;2023-06-24T11:24:48;28.80;93.10
2012;DHT22;1009;51.436;6.972;2023-06-24T11:27:14;29.00;89.90
2012;DHT22;1009;51.436;6.972;2023-06-24T11:29:41;29.00;81.40
2012;DHT22;1009;51.436;6.972;2023-06-24T11:32:09;29.00;84.10
2012;DHT22;1009;51.436;6.972;2023-06-24T11:34:36;29.10;78.20
2012;DHT22;1009;51.436;6.972;2023-06-24T11:37:11;29.30;75.60
2012;DHT22;1009;51.436;6.972;2023-06-24T11:39:38;29.40;75.50
2012;DHT22;1009;51.436;6.972;2023-06-24T11:42:08;29.60;60.50
2012;DHT22;1009;51.436;6.972;2023-06-24T11:44:41;29.50;63.60
2012;DHT22;1009;51.436;6.972;2023-06-24T11:47:10;29.50;71.20
2012;DHT22;1009;51.436;6.972;2023-06-24T11:49:50;29.60;71.90
2012;DHT22;1009;51.436;6.972;2023-06-24T11:52:17;29.60;75.70
2012;DHT22;1009;51.436;6.972;2023-06-24T11:54:44;29.80;70.80
2012;DHT22;1009;51.436;6.972;2023-06-24T11:57:12;29.70;69.00
2012;DHT22;1009;51.436;6.972;2023-06-24T11:59:39;29.80;73.80
2012;DHT22;1009;51.436;6.972;2023-06-24T12:02:05;29.60;84.60
2012;DHT22;1009;51.436;6.972;2023-06-24T12:04:32;29.60;79.60
2012;DHT22;1009;51.436;6.972;2023-06-24T12:07:00;29.80;76.00
2012;DHT22;1009;51.436;6.972;2023-06-24T12:09:28;29.50;87.00
2012;DHT22;1009;51.436;6.972;2023-06-24T12:11:58;29.70;72.30
2012;DHT22;1009;51.436;6.972;2023-06-24T12:14:29;29.60;82.40
2012;DHT22;1009;51.436;6.972;2023-06-24T12:16:55;29.60;72.50
2012;DHT22;1009;51.436;6.972;2023-06-24T12:19:22;29.80;73.30
2012;DHT22;1009;51.436;6.972;2023-06-24T12:21:49;29.90;74.50
2012;DHT22;1009;51.436;6.972;2023-06-24T12:24:21;29.80;70.80
2012;DHT22;1009;51.436;6.972;2023-06-24T12:26:48;29.70;74.90
2012;DHT22;1009;51.436;6.972;2023-06-24T12:29:15;29.60;75.50
2012;DHT22;1009;51.436;6.972;2023-06-24T12:31:43;29.80;75.90
2012;DHT22;1009;51.436;6.972;2023-06-24T12:34:09;29.50;69.60
2012;DHT22;1009;51.436;6.972;2023-06-24T12:36:36;29.60;67.80
2012;DHT22;1009;51.436;6.972;2023-06-24T12:39:06;29.60;68.20
2012;DHT22;1009;51.436;6.972;2023-06-24T12:41:32;29.50;65.40
2012;DHT22;1009;51.436;6.972;2023-06-24T12:43:59;29.60;68.60
2012;DHT22;1009;51.436;6.972;2023-06-24T12:46:26;29.80;70.20
2012;DHT22;1009;51.436;6.972;2023-06-24T12:48:54;29.80;71.20
2012;DHT22;1009;51.436;6.972;2023-06-24T12:51:22;29.80;70.20
2012;DHT22;1009;51.436;6.972;2023-06-24T12:53:51;29.80;69.80
2012;DHT22;1009;51.436;6.972;2023-06-24T12:56:21;29.90;69.50
2012;DHT22;1009;51.436;6.972;2023-06-24T12:58:48;29.90;71.60
2012;DHT22;1009;51.436;6.972;2023-06-24T13:01:14;30.00;75.40
2012;DHT22;1009;51.436;6.972;2023-06-24T13:03:42;30.30;71.00
2012;DHT22;1009;51.436;6.972;2023-06-24T13:06:10;30.50;67.90
2012;DHT22;1009;51.436;6.972;2023-06-24T13:08:37;30.50;65.30
2012;DHT22;1009;51.436;6.972;2023-06-24T13:11:03;30.40;67.70
2012;DHT22;1009;51.436;6.972;2023-06-24T13:13:30;30.60;71.70
2012;DHT22;1009;51.436;6.972;2023-06-24T13:15:57;30.40;64.90
2012;DHT22;1009;51.436;6.972;2023-06-24T13:18:23;30.10;65.40
2012;DHT22;1009;51.436;6.972;2023-06-24T13:20:50;30.00;72.50
2012;DHT22;1009;51.436;6.972;2023-06-24T13:23:18;30.00;64.80
2012;DHT22;1009;51.436;6.972;2023-06-24T13:25:45;30.00;63.30
2012;DHT22;1009;51.436;6.972;2023-06-24T13:28:12;30.30;65.40
2012;DHT22;1009;51.436;6.972;2023-06-24T13:30:39;30.10;63.60
2012;DHT22;1009;51.436;6.972;2023-06-24T13:33:06;30.10;61.90
2012;DHT22;1009;51.436;6.972;2023-06-24T13:35:33;30.10;62.00
2012;DHT22;1009;51.436;6.972;2023-06-24T13:37:59;30.20;70.20
2012;DHT22;1009;51.436;6.972;2023-06-24T13:40:27;30.40;67.80
2012;DHT22;1009;51.436;6.972;2023-06-24T13:42:54;30.60;64.70
2012;DHT22;1009;51.436;6.972;2023-06-24T13:45:21;30.30;62.80
2012;DHT22;1009;51.436;6.972;2023-06-24T13:47:48;30.10;63.80
2012;DHT22;1009;51.436;6.972;2023-06-24T13:50:15;30.30;61.40
2012;DHT22;1009;51.436;6.972;2023-06-24T13:52:41;30.20;61.60
2012;DHT22;1009;51.436;6.972;2023-06-24T13:55:14;30.00;58.50
2012;DHT22;1009;51.436;6.972;2023-06-24T13:57:42;30.20;66.90
2012;DHT22;1009;51.436;6.972;2023-06-24T14:00:10;30.40;59.10
2012;DHT22;1009;51.436;6.972;2023-06-24T14:02:37;30.30;58.70
2012;DHT22;1009;51.436;6.972;2023-06-24T14:05:08;30.30;59.30
2012;DHT22;1009;51.436;6.972;2023-06-24T14:07:34;30.50;62.80
2012;DHT22;1009;51.436;6.972;2023-06-24T14:10:01;30.70;63.70
2012;DHT22;1009;51.436;6.972;2023-06-24T14:12:28;30.60;63.80
2012;DHT22;1009;51.436;6.972;2023-06-24T14:14:56;30.40;57.40
2012;DHT22;1009;51.436;6.972;2023-06-24T14:17:23;30.30;55.30
2012;DHT22;1009;51.436;6.972;2023-06-24T14:19:50;30.30;57.00
2012;DHT22;1009;51.436;6.972;2023-06-24T14:22:17;30.40;57.60
2012;DHT22;1009;51.436;6.972;2023-06-24T14:24:44;30.40;57.60
2012;DHT22;1009;51.436;6.972;2023-06-24T14:27:10;30.40;58.40
2012;DHT22;1009;51.436;6.972;2023-06-24T14:29:37;30.40;57.40
2012;DHT22;1009;51.436;6.972;2023-06-24T14:32:08;30.40;55.80
2012;DHT22;1009;51.436;6.972;2023-06-24T14:34:35;30.40;58.60
2012;DHT22;1009;51.436;6.972;2023-06-24T14:37:02;30.30;54.50
2012;DHT22;1009;51.436;6.972;2023-06-24T14:39:28;30.20;56.30
2012;DHT22;1009;51.436;6.972;2023-06-24T14:41:55;30.20;54.30
2012;DHT22;1009;51.436;6.972;2023-06-24T14:44:22;30.40;54.00
2012;DHT22;1009;51.436;6.972;2023-06-24T14:46:48;30.30;55.70
2012;DHT22;1009;51.436;6.972;2023-06-24T14:49:17;30.40;57.70
2012;DHT22;1009;51.436;6.972;2023-06-24T14:51:43;30.50;61.00
2012;DHT22;1009;51.436;6.972;2023-06-24T14:54:10;30.60;56.90
2012;DHT22;1009;51.436;6.972;2023-06-24T14:56:37;30.60;55.20
2012;DHT22;1009;51.436;6.972;2023-06-24T14:59:03;30.50;56.30
2012;DHT22;1009;51.436;6.972;2023-06-24T15:01:30;30.10;52.30
2012;DHT22;1009;51.436;6.972;2023-06-24T15:03:57;30.00;53.90
2012;DHT22;1009;51.436;6.972;2023-06-24T15:06:25;30.00;51.70
2012;DHT22;1009;51.436;6.972;2023-06-24T15:08:51;29.80;51.30
2012;DHT22;1009;51.436;6.972;2023-06-24T15:11:18;29.60;52.20
2012;DHT22;1009;51.436;6.972;2023-06-24T15:13:45;29.70;54.90
2012;DHT22;1009;51.436;6.972;2023-06-24T15:16:11;29.90;54.00
2012;DHT22;1009;51.436;6.972;2023-06-24T15:18:44;29.80;54.70
2012;DHT22;1009;51.436;6.972;2023-06-24T15:21:12;29.90;55.20
2012;DHT22;1009;51.436;6.972;2023-06-24T15:23:40;29.70;54.80
2012;DHT22;1009;51.436;6.972;2023-06-24T15:26:07;29.70;53.50
2012;DHT22;1009;51.436;6.972;2023-06-24T15:28:34;29.70;51.80
2012;DHT22;1009;51.436;6.972;2023-06-24T15:31:01;29.50;51.00
2012;DHT22;1009;51.436;6.972;2023-06-24T15:33:27;29.40;50.10
2012;DHT22;1009;51.436;6.972;2023-06-24T15:35:54;29.10;50.70
2012;DHT22;1009;51.436;6.972;2023-06-24T15:38:23;28.70;52.20
2012;DHT22;1009;51.436;6.972;2023-06-24T15:40:51;28.40;50.00
2012;DHT22;1009;51.436;6.972;2023-06-24T15:43:17;28.40;51.90
2012;DHT22;1009;51.436;6.972;2023-06-24T15:45:44;28.40;54.70
2012;DHT22;1009;51.436;6.972;2023-06-24T15:48:11;28.40;57.50
2012;DHT22;1009;51.436;6.972;2023-06-24T15:50:39;28.30;51.10
2012;DHT22;1009;51.436;6.972;2023-06-24T15:53:05;28.50;53.10
2012;DHT22;1009;51.436;6.972;2023-06-24T15:55:32;28.50;53.30
2012;DHT22;1009;51.436;6.972;2023-06-24T15:58:00;28.50;51.80
2012;DHT22;1009;51.436;6.972;2023-06-24T16:00:27;28.40;50.30
2012;DHT22;1009;51.436;6.972;2023-06-24T16:02:53;28.50;50.20
2012;DHT22;1009;51.436;6.972;2023-06-24T16:05:20;28.60;51.90
2012;DHT22;1009;51.436;6.972;2023-06-24T16:07:47;28.60;53.50